createdAt,value
2017-08-24T00:00:17.403Z,1006.79
2017-08-24T00:01:17.389Z,1006.82
2017-08-24T00:02:17.364Z,1006.81
2017-08-24T00:03:17.347Z,1006.86
2017-08-24T00:04:17.324Z,1006.85
2017-08-24T00:05:17.305Z,1006.85
2017-08-24T00:06:17.285Z,1006.77
2017-08-24T00:07:17.262Z,1006.73
2017-08-24T00:08:17.246Z,1006.75
2017-08-24T00:09:17.231Z,1006.76
2017-08-24T00:10:17.210Z,1006.81
2017-08-24T00:11:17.187Z,1006.82
2017-08-24T00:12:17.170Z,1006.78
2017-08-24T00:13:17.149Z,1006.77
2017-08-24T00:14:17.129Z,1006.79
2017-08-24T00:15:17.110Z,1006.79
2017-08-24T00:16:17.089Z,1006.77
2017-08-24T00:17:17.070Z,1006.74
2017-08-24T00:18:17.049Z,1006.78
2017-08-24T00:19:17.031Z,1006.79
2017-08-24T00:20:17.064Z,1006.82
2017-08-24T00:21:16.995Z,1006.83
2017-08-24T00:22:16.973Z,1006.87
2017-08-24T00:23:16.955Z,1006.84
2017-08-24T00:24:16.935Z,1006.83
2017-08-24T00:25:16.917Z,1006.86
2017-08-24T00:26:16.893Z,1006.85
2017-08-24T00:27:16.872Z,1006.85
2017-08-24T00:28:16.855Z,1006.89
2017-08-24T00:29:16.833Z,1006.89
2017-08-24T00:30:16.812Z,1006.92
2017-08-24T00:31:16.794Z,1006.88
2017-08-24T00:32:16.776Z,1006.85
2017-08-24T00:33:16.762Z,1006.88
2017-08-24T00:34:16.736Z,1006.85
2017-08-24T00:35:16.716Z,1006.82
2017-08-24T00:36:16.702Z,1006.87
2017-08-24T00:37:16.678Z,1006.91
2017-08-24T00:38:16.656Z,1006.9
2017-08-24T00:39:16.642Z,1006.89
2017-08-24T00:40:16.617Z,1006.93
2017-08-24T00:41:16.599Z,1006.88
2017-08-24T00:42:16.579Z,1006.93
2017-08-24T00:43:16.558Z,1006.93
2017-08-24T00:44:16.543Z,1006.89
2017-08-24T00:45:16.526Z,1006.89
2017-08-24T00:46:16.500Z,1006.81
2017-08-24T00:47:16.485Z,1006.81
2017-08-24T00:48:16.464Z,1006.81
2017-08-24T00:49:16.441Z,1006.85
2017-08-24T00:50:16.422Z,1006.86
2017-08-24T00:51:16.403Z,1006.85
2017-08-24T00:52:16.385Z,1006.84
2017-08-24T00:53:16.362Z,1006.81
2017-08-24T00:54:16.345Z,1006.86
2017-08-24T00:55:16.322Z,1006.85
2017-08-24T00:56:16.310Z,1006.86
2017-08-24T00:57:16.289Z,1006.84
2017-08-24T00:58:16.267Z,1006.82
2017-08-24T00:59:16.295Z,1006.84
2017-08-24T01:00:16.228Z,1006.81
2017-08-24T01:01:16.205Z,1006.78
2017-08-24T01:02:16.184Z,1006.74
2017-08-24T01:03:16.167Z,1006.79
2017-08-24T01:04:16.146Z,1006.75
2017-08-24T01:05:16.135Z,1006.78
2017-08-24T01:06:16.105Z,1006.75
2017-08-24T01:07:16.089Z,1006.8
2017-08-24T01:08:16.068Z,1006.82
2017-08-24T01:09:16.050Z,1006.77
2017-08-24T01:10:16.029Z,1006.81
2017-08-24T01:11:16.033Z,1006.86
2017-08-24T01:12:15.989Z,1006.86
2017-08-24T01:13:15.968Z,1006.87
2017-08-24T01:14:15.951Z,1006.88
2017-08-24T01:15:15.931Z,1006.81
2017-08-24T01:16:15.910Z,1006.87
2017-08-24T01:17:15.888Z,1006.94
2017-08-24T01:18:15.872Z,1006.88
2017-08-24T01:19:15.854Z,1006.89
2017-08-24T01:20:15.833Z,1006.86
2017-08-24T01:21:15.813Z,1006.84
2017-08-24T01:22:15.795Z,1006.89
2017-08-24T01:23:15.778Z,1006.9
2017-08-24T01:24:15.753Z,1006.89
2017-08-24T01:25:15.735Z,1006.9
2017-08-24T01:26:15.813Z,1006.92
2017-08-24T01:27:15.696Z,1006.9
2017-08-24T01:28:15.674Z,1006.95
2017-08-24T01:29:15.654Z,1006.95
2017-08-24T01:30:15.635Z,1006.98
2017-08-24T01:31:15.638Z,1007.04
2017-08-24T01:32:15.594Z,1007.09
2017-08-24T01:33:15.575Z,1007.08
2017-08-24T01:34:15.556Z,1007.07
2017-08-24T01:35:15.532Z,1007.09
2017-08-24T01:36:15.516Z,1007.05
2017-08-24T01:37:15.497Z,1007.09
2017-08-24T01:38:15.479Z,1007.06
2017-08-24T01:39:15.470Z,1007.09
2017-08-24T01:40:15.436Z,1007.12
2017-08-24T01:41:15.416Z,1007.1
2017-08-24T01:42:15.396Z,1007.1
2017-08-24T01:43:15.377Z,1007.06
2017-08-24T01:44:15.358Z,1007.05
2017-08-24T01:45:15.347Z,1007.08
2017-08-24T01:46:15.318Z,1007.01
2017-08-24T01:47:15.349Z,1006.98
2017-08-24T01:48:15.279Z,1006.97
2017-08-24T01:49:15.367Z,1006.95
2017-08-24T01:50:15.241Z,1006.94
2017-08-24T01:51:15.219Z,1006.97
2017-08-24T01:52:15.200Z,1007
2017-08-24T01:53:15.183Z,1007.06
2017-08-24T01:54:15.162Z,1007.06
2017-08-24T01:55:15.139Z,1007.07
2017-08-24T01:56:15.119Z,1007.06
2017-08-24T01:57:15.320Z,1007.06
2017-08-24T01:58:15.081Z,1007.07
2017-08-24T01:59:15.062Z,1007.07
2017-08-24T02:00:15.042Z,1007.05
2017-08-24T02:01:15.021Z,1007.06
2017-08-24T02:02:15.001Z,1007.09
2017-08-24T02:03:14.983Z,1007.09
2017-08-24T02:04:14.963Z,1007.11
2017-08-24T02:05:14.946Z,1007.12
2017-08-24T02:06:14.923Z,1007.14
2017-08-24T02:07:14.904Z,1007.14
2017-08-24T02:08:14.882Z,1007.15
2017-08-24T02:09:14.866Z,1007.16
2017-08-24T02:10:14.847Z,1007.18
2017-08-24T02:11:14.825Z,1007.18
2017-08-24T02:12:14.808Z,1007.17
2017-08-24T02:13:14.790Z,1007.19
2017-08-24T02:14:14.772Z,1007.14
2017-08-24T02:15:14.744Z,1007.15
2017-08-24T02:17:14.707Z,1007.27
2017-08-24T02:18:14.687Z,1007.2
2017-08-24T02:19:14.668Z,1007.21
2017-08-24T02:20:14.646Z,1007.21
2017-08-24T02:21:14.637Z,1007.22
2017-08-24T02:22:14.624Z,1007.21
2017-08-24T02:23:14.589Z,1007.2
2017-08-24T02:24:14.569Z,1007.23
2017-08-24T02:25:14.553Z,1007.22
2017-08-24T02:26:14.535Z,1007.19
2017-08-24T02:27:14.510Z,1007.19
2017-08-24T02:28:14.489Z,1007.23
2017-08-24T02:29:14.472Z,1007.21
2017-08-24T02:30:14.450Z,1007.21
2017-08-24T02:31:14.642Z,1007.25
2017-08-24T02:32:14.413Z,1007.27
2017-08-24T02:33:14.393Z,1007.28
2017-08-24T02:34:14.371Z,1007.32
2017-08-24T02:35:14.351Z,1007.29
2017-08-24T02:36:14.333Z,1007.31
2017-08-24T02:37:14.314Z,1007.3
2017-08-24T02:38:14.293Z,1007.27
2017-08-24T02:39:14.274Z,1007.25
2017-08-24T02:40:14.253Z,1007.21
2017-08-24T02:41:14.233Z,1007.24
2017-08-24T02:42:14.214Z,1007.25
2017-08-24T02:43:14.196Z,1007.27
2017-08-24T02:44:14.184Z,1007.29
2017-08-24T02:45:14.154Z,1007.3
2017-08-24T02:46:14.135Z,1007.28
2017-08-24T02:47:14.116Z,1007.26
2017-08-24T02:48:14.144Z,1007.25
2017-08-24T02:49:14.075Z,1007.28
2017-08-24T02:50:14.056Z,1007.28
2017-08-24T02:51:14.035Z,1007.31
2017-08-24T02:52:14.014Z,1007.32
2017-08-24T02:53:13.997Z,1007.32
2017-08-24T02:54:13.977Z,1007.32
2017-08-24T02:55:13.958Z,1007.31
2017-08-24T02:56:14.187Z,1007.31
2017-08-24T02:57:13.924Z,1007.34
2017-08-24T02:58:13.898Z,1007.34
2017-08-24T02:59:13.875Z,1007.35
2017-08-24T03:00:13.860Z,1007.35
2017-08-24T03:01:13.838Z,1007.35
2017-08-24T03:02:13.819Z,1007.36
2017-08-24T03:03:13.800Z,1007.35
2017-08-24T03:04:13.779Z,1007.33
2017-08-24T03:05:13.760Z,1007.36
2017-08-24T03:06:13.740Z,1007.35
2017-08-24T03:07:13.720Z,1007.36
2017-08-24T03:08:13.701Z,1007.3
2017-08-24T03:09:13.681Z,1007.34
2017-08-24T03:10:13.662Z,1007.37
2017-08-24T03:11:13.642Z,1007.4
2017-08-24T03:12:13.625Z,1007.43
2017-08-24T03:13:13.605Z,1007.41
2017-08-24T03:14:13.583Z,1007.39
2017-08-24T03:15:13.564Z,1007.43
2017-08-24T03:16:13.542Z,1007.42
2017-08-24T03:17:13.523Z,1007.39
2017-08-24T03:18:13.504Z,1007.37
2017-08-24T03:19:13.537Z,1007.41
2017-08-24T03:20:13.464Z,1007.41
2017-08-24T03:21:13.444Z,1007.34
2017-08-24T03:22:13.425Z,1007.37
2017-08-24T03:23:13.404Z,1007.37
2017-08-24T03:24:13.385Z,1007.34
2017-08-24T03:25:13.364Z,1007.37
2017-08-24T03:26:13.345Z,1007.35
2017-08-24T03:27:13.327Z,1007.38
2017-08-24T03:28:13.306Z,1007.41
2017-08-24T03:29:13.287Z,1007.4
2017-08-24T03:30:13.295Z,1007.42
2017-08-24T03:31:13.298Z,1007.4
2017-08-24T03:32:13.227Z,1007.44
2017-08-24T03:33:13.208Z,1007.46
2017-08-24T03:34:13.192Z,1007.45
2017-08-24T03:35:13.175Z,1007.51
2017-08-24T03:36:13.148Z,1007.54
2017-08-24T03:37:13.133Z,1007.47
2017-08-24T03:38:13.110Z,1007.54
2017-08-24T03:39:13.089Z,1007.59
2017-08-24T03:40:13.120Z,1007.56
2017-08-24T03:41:13.050Z,1007.63
2017-08-24T03:42:13.029Z,1007.65
2017-08-24T03:43:13.013Z,1007.69
2017-08-24T03:44:12.989Z,1007.69
2017-08-24T03:45:12.969Z,1007.68
2017-08-24T03:46:12.958Z,1007.72
2017-08-24T03:47:12.933Z,1007.68
2017-08-24T03:48:12.909Z,1007.75
2017-08-24T03:49:12.892Z,1007.74
2017-08-24T03:50:12.872Z,1007.72
2017-08-24T03:51:12.848Z,1007.69
2017-08-24T03:52:12.829Z,1007.71
2017-08-24T03:53:12.815Z,1007.76
2017-08-24T03:54:12.790Z,1007.76
2017-08-24T03:55:12.773Z,1007.78
2017-08-24T03:56:12.756Z,1007.76
2017-08-24T03:57:12.732Z,1007.77
2017-08-24T03:58:12.712Z,1007.84
2017-08-24T03:59:12.692Z,1007.76
2017-08-24T04:00:12.673Z,1007.8
2017-08-24T04:01:12.657Z,1007.78
2017-08-24T04:02:12.634Z,1007.72
2017-08-24T04:03:12.612Z,1007.77
2017-08-24T04:04:12.594Z,1007.76
2017-08-24T04:05:12.573Z,1007.8
2017-08-24T04:06:12.554Z,1007.81
2017-08-24T04:07:12.534Z,1007.79
2017-08-24T04:08:12.513Z,1007.81
2017-08-24T04:09:12.494Z,1007.8
2017-08-24T04:10:12.473Z,1007.8
2017-08-24T04:11:12.455Z,1007.84
2017-08-24T04:12:12.433Z,1007.83
2017-08-24T04:13:12.415Z,1007.88
2017-08-24T04:14:12.398Z,1007.91
2017-08-24T04:15:12.376Z,1007.89
2017-08-24T04:16:12.354Z,1007.89
2017-08-24T04:17:12.340Z,1007.92
2017-08-24T04:18:12.315Z,1007.92
2017-08-24T04:19:12.295Z,1007.95
2017-08-24T04:20:12.274Z,1007.92
2017-08-24T04:21:12.255Z,1007.94
2017-08-24T04:22:12.237Z,1007.92
2017-08-24T04:23:12.216Z,1007.93
2017-08-24T04:24:12.251Z,1007.93
2017-08-24T04:25:12.178Z,1007.94
2017-08-24T04:26:12.155Z,1007.92
2017-08-24T04:27:12.136Z,1007.9
2017-08-24T04:28:12.117Z,1007.9
2017-08-24T04:29:12.099Z,1007.89
2017-08-24T04:30:12.079Z,1007.97
2017-08-24T04:31:12.055Z,1007.94
2017-08-24T04:32:12.040Z,1007.94
2017-08-24T04:33:12.016Z,1007.97
2017-08-24T04:34:11.994Z,1007.99
2017-08-24T04:35:11.976Z,1007.94
2017-08-24T04:36:11.957Z,1007.97
2017-08-24T04:37:11.942Z,1007.97
2017-08-24T04:38:11.915Z,1007.98
2017-08-24T04:39:11.895Z,1008.06
2017-08-24T04:40:11.881Z,1008.01
2017-08-24T04:41:11.857Z,1008.06
2017-08-24T04:42:11.838Z,1008.08
2017-08-24T04:43:11.816Z,1008.06
2017-08-24T04:44:11.801Z,1008.09
2017-08-24T04:45:11.774Z,1008.1
2017-08-24T04:46:11.758Z,1008.09
2017-08-24T04:47:11.740Z,1008.08
2017-08-24T04:48:11.770Z,1008.09
2017-08-24T04:49:11.697Z,1008.12
2017-08-24T04:50:11.678Z,1008.14
2017-08-24T04:51:11.659Z,1008.14
2017-08-24T04:52:11.639Z,1008.18
2017-08-24T04:53:11.618Z,1008.2
2017-08-24T04:54:11.599Z,1008.22
2017-08-24T04:55:11.580Z,1008.22
2017-08-24T04:56:11.558Z,1008.21
2017-08-24T04:57:11.539Z,1008.23
2017-08-24T04:58:11.522Z,1008.25
2017-08-24T04:59:11.499Z,1008.21
2017-08-24T05:00:11.477Z,1008.23
2017-08-24T05:01:11.458Z,1008.25
2017-08-24T05:02:11.439Z,1008.23
2017-08-24T05:03:11.421Z,1008.23
2017-08-24T05:04:11.399Z,1008.25
2017-08-24T05:05:11.380Z,1008.27
2017-08-24T05:06:11.360Z,1008.23
2017-08-24T05:07:11.338Z,1008.22
2017-08-24T05:08:11.318Z,1008.26
2017-08-24T05:09:11.303Z,1008.24
2017-08-24T05:10:11.281Z,1008.25
2017-08-24T05:11:11.262Z,1008.26
2017-08-24T05:12:11.239Z,1008.28
2017-08-24T05:13:11.220Z,1008.27
2017-08-24T05:14:11.202Z,1008.29
2017-08-24T05:15:11.179Z,1008.25
2017-08-24T05:16:11.160Z,1008.32
2017-08-24T05:17:11.139Z,1008.32
2017-08-24T05:18:11.120Z,1008.36
2017-08-24T05:19:11.098Z,1008.34
2017-08-24T05:20:11.079Z,1008.35
2017-08-24T05:21:11.060Z,1008.38
2017-08-24T05:22:11.039Z,1008.35
2017-08-24T05:23:11.020Z,1008.34
2017-08-24T05:24:11.000Z,1008.34
2017-08-24T05:25:11.029Z,1008.36
2017-08-24T05:26:10.962Z,1008.31
2017-08-24T05:27:10.939Z,1008.37
2017-08-24T05:28:10.923Z,1008.36
2017-08-24T05:29:10.906Z,1008.39
2017-08-24T05:30:10.880Z,1008.38
2017-08-24T05:31:10.862Z,1008.48
2017-08-24T05:32:10.840Z,1008.44
2017-08-24T05:33:10.819Z,1008.45
2017-08-24T05:34:10.800Z,1008.53
2017-08-24T05:35:10.779Z,1008.49
2017-08-24T05:36:10.760Z,1008.49
2017-08-24T05:37:10.740Z,1008.54
2017-08-24T05:38:10.723Z,1008.48
2017-08-24T05:39:10.702Z,1008.52
2017-08-24T05:40:10.681Z,1008.56
2017-08-24T05:41:10.664Z,1008.52
2017-08-24T05:42:10.644Z,1008.58
2017-08-24T05:43:10.622Z,1008.56
2017-08-24T05:44:10.602Z,1008.55
2017-08-24T05:45:10.586Z,1008.59
2017-08-24T05:46:10.561Z,1008.61
2017-08-24T05:47:10.542Z,1008.54
2017-08-24T05:48:10.524Z,1008.58
2017-08-24T05:49:10.509Z,1008.62
2017-08-24T05:50:10.483Z,1008.6
2017-08-24T05:51:10.463Z,1008.67
2017-08-24T05:52:10.444Z,1008.63
2017-08-24T05:53:10.427Z,1008.66
2017-08-24T05:54:10.402Z,1008.69
2017-08-24T05:55:10.384Z,1008.7
2017-08-24T05:56:10.365Z,1008.72
2017-08-24T05:57:10.344Z,1008.74
2017-08-24T05:58:10.325Z,1008.72
2017-08-24T05:59:10.305Z,1008.77
2017-08-24T06:00:10.318Z,1008.8
2017-08-24T06:01:10.269Z,1008.83
2017-08-24T06:02:10.246Z,1008.85
2017-08-24T06:03:10.225Z,1008.88
2017-08-24T06:04:10.209Z,1008.88
2017-08-24T06:05:10.190Z,1008.92
2017-08-24T06:06:10.171Z,1008.92
2017-08-24T06:07:10.149Z,1008.88
2017-08-24T06:08:10.133Z,1008.91
2017-08-24T06:09:10.108Z,1008.88
2017-08-24T06:10:10.088Z,1008.83
2017-08-24T06:11:10.069Z,1008.89
2017-08-24T06:12:10.053Z,1008.89
2017-08-24T06:13:10.030Z,1008.89
2017-08-24T06:14:10.011Z,1008.91
2017-08-24T06:15:09.990Z,1008.9
2017-08-24T06:16:09.976Z,1008.91
2017-08-24T06:17:09.952Z,1008.94
2017-08-24T06:18:09.929Z,1008.98
2017-08-24T06:19:09.911Z,1008.97
2017-08-24T06:20:09.890Z,1008.96
2017-08-24T06:21:09.871Z,1008.98
2017-08-24T06:22:09.852Z,1008.98
2017-08-24T06:23:09.833Z,1008.99
2017-08-24T06:24:09.811Z,1008.95
2017-08-24T06:25:09.792Z,1008.95
2017-08-24T06:26:09.773Z,1009.01
2017-08-24T06:27:09.756Z,1008.99
2017-08-24T06:28:09.740Z,1009.06
2017-08-24T06:29:09.715Z,1009.04
2017-08-24T06:30:09.696Z,1009.08
2017-08-24T06:31:09.675Z,1009.07
2017-08-24T06:32:09.657Z,1009.09
2017-08-24T06:33:09.636Z,1009.11
2017-08-24T06:34:09.616Z,1009.06
2017-08-24T06:35:09.598Z,1009.04
2017-08-24T06:36:09.579Z,1009.05
2017-08-24T06:37:09.558Z,1009.01
2017-08-24T06:38:09.542Z,1009.05
2017-08-24T06:39:09.519Z,1009.02
2017-08-24T06:40:09.502Z,1009.06
2017-08-24T06:41:09.483Z,1008.98
2017-08-24T06:42:09.463Z,1009.01
2017-08-24T06:44:09.447Z,1009.06
2017-08-24T06:45:09.402Z,1009.06
2017-08-24T06:46:09.381Z,1008.99
2017-08-24T06:47:09.363Z,1009.01
2017-08-24T06:48:09.346Z,1008.99
2017-08-24T06:49:09.322Z,1008.99
2017-08-24T06:50:09.303Z,1009
2017-08-24T06:51:09.332Z,1008.97
2017-08-24T06:52:09.265Z,1008.97
2017-08-24T06:53:09.246Z,1008.99
2017-08-24T06:54:09.275Z,1009
2017-08-24T06:55:09.205Z,1008.99
2017-08-24T06:56:09.186Z,1008.98
2017-08-24T06:57:09.166Z,1009.03
2017-08-24T06:58:09.148Z,1009
2017-08-24T06:59:09.130Z,1009.05
2017-08-24T07:00:09.107Z,1009.02
2017-08-24T07:01:09.089Z,1009.08
2017-08-24T07:02:09.070Z,1009.12
2017-08-24T07:03:09.047Z,1009.14
2017-08-24T07:04:09.033Z,1009.08
2017-08-24T07:05:09.012Z,1009.11
2017-08-24T07:06:08.993Z,1009.15
2017-08-24T07:07:08.973Z,1009.23
2017-08-24T07:08:08.952Z,1009.24
2017-08-24T07:09:08.933Z,1009.2
2017-08-24T07:10:08.918Z,1009.24
2017-08-24T07:11:08.898Z,1009.24
2017-08-24T07:12:08.875Z,1009.28
2017-08-24T07:13:08.856Z,1009.24
2017-08-24T07:14:08.887Z,1009.32
2017-08-24T07:15:08.816Z,1009.33
2017-08-24T07:16:08.796Z,1009.32
2017-08-24T07:17:08.777Z,1009.36
2017-08-24T07:18:08.758Z,1009.34
2017-08-24T07:19:08.735Z,1009.34
2017-08-24T07:20:08.718Z,1009.39
2017-08-24T07:21:08.698Z,1009.4
2017-08-24T07:22:08.680Z,1009.47
2017-08-24T07:23:08.660Z,1009.47
2017-08-24T07:24:08.640Z,1009.51
2017-08-24T07:25:08.626Z,1009.51
2017-08-24T07:26:08.599Z,1009.53
2017-08-24T07:27:08.582Z,1009.49
2017-08-24T07:28:08.562Z,1009.56
2017-08-24T07:29:08.544Z,1009.58
2017-08-24T07:30:08.523Z,1009.54
2017-08-24T07:31:08.511Z,1009.57
2017-08-24T07:32:08.485Z,1009.61
2017-08-24T07:33:08.465Z,1009.57
2017-08-24T07:34:08.450Z,1009.64
2017-08-24T07:35:08.430Z,1009.66
2017-08-24T07:36:08.408Z,1009.63
2017-08-24T07:37:08.387Z,1009.59
2017-08-24T07:38:08.368Z,1009.58
2017-08-24T07:39:08.351Z,1009.62
2017-08-24T07:40:08.329Z,1009.63
2017-08-24T07:41:08.310Z,1009.61
2017-08-24T07:42:08.291Z,1009.56
2017-08-24T07:43:08.279Z,1009.54
2017-08-24T07:44:08.252Z,1009.56
2017-08-24T07:45:08.233Z,1009.55
2017-08-24T07:46:08.216Z,1009.54
2017-08-24T07:47:08.197Z,1009.54
2017-08-24T07:48:08.174Z,1009.53
2017-08-24T07:49:08.154Z,1009.59
2017-08-24T07:50:08.141Z,1009.6
2017-08-24T07:51:08.122Z,1009.62
2017-08-24T07:52:08.100Z,1009.57
2017-08-24T07:53:08.085Z,1009.64
2017-08-24T07:54:08.061Z,1009.64
2017-08-24T07:55:08.043Z,1009.65
2017-08-24T07:56:08.024Z,1009.62
2017-08-24T07:57:08.006Z,1009.64
2017-08-24T07:58:07.984Z,1009.65
2017-08-24T07:59:07.972Z,1009.64
2017-08-24T08:00:07.949Z,1009.66
2017-08-24T08:01:07.941Z,1009.67
2017-08-24T08:02:07.911Z,1009.65
2017-08-24T08:03:07.891Z,1009.66
2017-08-24T08:04:07.874Z,1009.64
2017-08-24T08:05:07.855Z,1009.67
2017-08-24T08:06:07.835Z,1009.69
2017-08-24T08:07:07.818Z,1009.72
2017-08-24T08:08:07.798Z,1009.73
2017-08-24T08:09:07.780Z,1009.8
2017-08-24T08:10:07.761Z,1009.72
2017-08-24T08:11:07.740Z,1009.72
2017-08-24T08:12:07.723Z,1009.72
2017-08-24T08:13:07.703Z,1009.69
2017-08-24T08:14:07.682Z,1009.77
2017-08-24T08:15:07.664Z,1009.71
2017-08-24T08:16:07.646Z,1009.75
2017-08-24T08:17:07.629Z,1009.73
2017-08-24T08:18:07.609Z,1009.82
2017-08-24T08:19:07.588Z,1009.79
2017-08-24T08:20:07.571Z,1009.78
2017-08-24T08:21:07.551Z,1009.79
2017-08-24T08:22:07.581Z,1009.79
2017-08-24T08:23:07.513Z,1009.85
2017-08-24T08:24:07.496Z,1009.81
2017-08-24T08:25:07.478Z,1009.82
2017-08-24T08:26:07.457Z,1009.86
2017-08-24T08:27:07.442Z,1009.88
2017-08-24T08:28:07.420Z,1009.88
2017-08-24T08:29:07.653Z,1009.87
2017-08-24T08:30:07.389Z,1009.84
2017-08-24T08:31:07.368Z,1009.89
2017-08-24T08:32:07.347Z,1009.84
2017-08-24T08:33:07.329Z,1009.83
2017-08-24T08:34:07.309Z,1009.9
2017-08-24T08:35:07.290Z,1009.84
2017-08-24T08:36:07.282Z,1009.89
2017-08-24T08:37:07.259Z,1009.84
2017-08-24T08:38:07.237Z,1009.89
2017-08-24T08:39:07.222Z,1009.88
2017-08-24T08:40:07.202Z,1009.89
2017-08-24T08:41:07.189Z,1009.88
2017-08-24T08:42:07.168Z,1009.82
2017-08-24T08:43:07.150Z,1009.89
2017-08-24T08:44:07.133Z,1009.84
2017-08-24T08:45:07.118Z,1009.86
2017-08-24T08:46:07.104Z,1009.83
2017-08-24T08:47:07.082Z,1009.83
2017-08-24T08:48:07.065Z,1009.85
2017-08-24T08:49:07.048Z,1009.86
2017-08-24T08:50:07.035Z,1009.89
2017-08-24T08:51:07.019Z,1009.89
2017-08-24T08:52:07.002Z,1009.9
2017-08-24T08:53:06.988Z,1009.89
2017-08-24T08:54:06.968Z,1009.93
2017-08-24T08:55:07.000Z,1009.94
2017-08-24T08:56:06.936Z,1009.96
2017-08-24T08:57:06.919Z,1009.94
2017-08-24T08:58:06.903Z,1009.96
2017-08-24T08:59:06.889Z,1009.97
2017-08-24T09:00:06.870Z,1009.91
2017-08-24T09:01:06.852Z,1009.98
2017-08-24T09:02:06.836Z,1009.99
2017-08-24T09:03:06.820Z,1010.05
2017-08-24T09:04:06.804Z,1009.95
2017-08-24T09:05:06.787Z,1010.06
2017-08-24T09:06:06.770Z,1010.03
2017-08-24T09:07:06.753Z,1010.02
2017-08-24T09:08:06.736Z,1010.03
2017-08-24T09:09:06.718Z,1010.01
2017-08-24T09:10:06.710Z,1010.02
2017-08-24T09:11:06.686Z,1010.02
2017-08-24T09:12:06.670Z,1010.03
2017-08-24T09:13:06.653Z,1009.97
2017-08-24T09:14:06.639Z,1010.03
2017-08-24T09:15:06.625Z,1010
2017-08-24T09:16:06.608Z,1010
2017-08-24T09:17:06.594Z,1010.06
2017-08-24T09:18:06.583Z,1009.98
2017-08-24T09:19:06.564Z,1010.03
2017-08-24T09:20:06.544Z,1010
2017-08-24T09:21:06.535Z,1010.02
2017-08-24T09:22:06.516Z,1010.01
2017-08-24T09:23:06.500Z,1010.02
2017-08-24T09:24:06.488Z,1010.03
2017-08-24T09:25:06.474Z,1010.01
2017-08-24T09:26:06.460Z,1010.06
2017-08-24T09:27:06.449Z,1010.01
2017-08-24T09:28:06.433Z,1010.11
2017-08-24T09:29:06.419Z,1010.09
2017-08-24T09:30:06.654Z,1010.08
2017-08-24T09:31:06.393Z,1010.01
2017-08-24T09:32:06.386Z,1010.1
2017-08-24T09:33:06.365Z,1010.04
2017-08-24T09:34:06.352Z,1010.08
2017-08-24T09:35:06.339Z,1010.06
2017-08-24T09:36:06.328Z,1010.03
2017-08-24T09:37:06.312Z,1010.06
2017-08-24T09:38:06.297Z,1010.11
2017-08-24T09:39:06.283Z,1010.06
2017-08-24T09:40:06.271Z,1010.05
2017-08-24T09:41:06.251Z,1010.08
2017-08-24T09:42:06.240Z,1010.12
2017-08-24T09:43:06.229Z,1010.08
2017-08-24T09:44:06.216Z,1010.11
2017-08-24T09:45:06.202Z,1010.12
2017-08-24T09:46:06.189Z,1010.13
2017-08-24T09:47:06.178Z,1010.14
2017-08-24T09:48:06.167Z,1010.15
2017-08-24T09:49:06.152Z,1010.14
2017-08-24T09:50:06.140Z,1010.22
2017-08-24T09:51:06.131Z,1010.18
2017-08-24T09:52:06.114Z,1010.18
2017-08-24T09:53:06.103Z,1010.2
2017-08-24T09:54:06.089Z,1010.14
2017-08-24T09:55:06.077Z,1010.15
2017-08-24T09:56:06.065Z,1010.22
2017-08-24T09:57:06.054Z,1010.15
2017-08-24T09:58:06.093Z,1010.16
2017-08-24T09:59:06.029Z,1010.16
2017-08-24T10:00:06.022Z,1010.16
2017-08-24T10:01:06.007Z,1010.15
2017-08-24T10:02:05.996Z,1010.21
2017-08-24T10:03:05.985Z,1010.14
2017-08-24T10:04:05.974Z,1010.17
2017-08-24T10:05:05.962Z,1010.21
2017-08-24T10:06:05.954Z,1010.22
2017-08-24T10:07:05.942Z,1010.23
2017-08-24T10:08:05.932Z,1010.28
2017-08-24T10:09:05.919Z,1010.25
2017-08-24T10:10:05.908Z,1010.22
2017-08-24T10:11:05.893Z,1010.2
2017-08-24T10:12:05.884Z,1010.2
2017-08-24T10:13:05.873Z,1010.19
2017-08-24T10:14:05.863Z,1010.28
2017-08-24T10:15:05.902Z,1010.29
2017-08-24T10:16:05.836Z,1010.33
2017-08-24T10:17:05.825Z,1010.33
2017-08-24T10:18:05.813Z,1010.35
2017-08-24T10:19:05.801Z,1010.33
2017-08-24T10:20:05.789Z,1010.3
2017-08-24T10:21:06.075Z,1010.3
2017-08-24T10:22:05.765Z,1010.29
2017-08-24T10:23:05.754Z,1010.3
2017-08-24T10:24:05.737Z,1010.3
2017-08-24T10:25:05.724Z,1010.26
2017-08-24T10:26:05.709Z,1010.31
2017-08-24T10:27:05.696Z,1010.25
2017-08-24T10:28:05.685Z,1010.28
2017-08-24T10:29:05.688Z,1010.24
2017-08-24T10:30:05.660Z,1010.28
2017-08-24T10:31:05.730Z,1010.24
2017-08-24T10:32:05.624Z,1010.21
2017-08-24T10:33:05.611Z,1010.28
2017-08-24T10:34:05.599Z,1010.21
2017-08-24T10:35:05.582Z,1010.23
2017-08-24T10:36:05.573Z,1010.19
2017-08-24T10:37:05.556Z,1010.22
2017-08-24T10:38:05.545Z,1010.24
2017-08-24T10:39:05.527Z,1010.28
2017-08-24T10:40:05.512Z,1010.3
2017-08-24T10:41:05.502Z,1010.33
2017-08-24T10:42:05.489Z,1010.35
2017-08-24T10:43:05.470Z,1010.36
2017-08-24T10:44:05.457Z,1010.41
2017-08-24T10:45:05.441Z,1010.41
2017-08-24T10:46:05.428Z,1010.36
2017-08-24T10:47:05.415Z,1010.34
2017-08-24T10:48:05.405Z,1010.38
2017-08-24T10:49:05.385Z,1010.4
2017-08-24T10:50:05.368Z,1010.41
2017-08-24T10:51:05.356Z,1010.36
2017-08-24T10:52:05.342Z,1010.34
2017-08-24T10:53:05.326Z,1010.38
2017-08-24T10:54:05.311Z,1010.37
2017-08-24T10:55:05.297Z,1010.36
2017-08-24T10:56:05.282Z,1010.37
2017-08-24T10:57:05.267Z,1010.37
2017-08-24T10:58:05.250Z,1010.4
2017-08-24T10:59:05.236Z,1010.4
2017-08-24T11:00:05.222Z,1010.39
2017-08-24T11:01:05.209Z,1010.38
2017-08-24T11:02:05.192Z,1010.37
2017-08-24T11:03:05.177Z,1010.38
2017-08-24T11:04:05.163Z,1010.4
2017-08-24T11:05:05.146Z,1010.41
2017-08-24T11:06:05.132Z,1010.42
2017-08-24T11:07:05.117Z,1010.4
2017-08-24T11:08:05.100Z,1010.43
2017-08-24T11:09:05.138Z,1010.38
2017-08-24T11:10:05.077Z,1010.33
2017-08-24T11:11:05.055Z,1010.35
2017-08-24T11:12:05.044Z,1010.42
2017-08-24T11:13:05.027Z,1010.37
2017-08-24T11:14:05.012Z,1010.32
2017-08-24T11:15:04.997Z,1010.42
2017-08-24T11:16:04.981Z,1010.34
2017-08-24T11:17:04.967Z,1010.32
2017-08-24T11:18:04.951Z,1010.39
2017-08-24T11:19:04.936Z,1010.45
2017-08-24T11:20:04.921Z,1010.37
2017-08-24T11:21:04.902Z,1010.44
2017-08-24T11:22:04.895Z,1010.46
2017-08-24T11:23:04.875Z,1010.53
2017-08-24T11:24:04.860Z,1010.46
2017-08-24T11:25:04.843Z,1010.48
2017-08-24T11:26:04.828Z,1010.45
2017-08-24T11:27:04.814Z,1010.46
2017-08-24T11:28:04.803Z,1010.49
2017-08-24T11:29:04.784Z,1010.46
2017-08-24T11:30:04.767Z,1010.47
2017-08-24T11:31:04.751Z,1010.47
2017-08-24T11:32:04.735Z,1010.47
2017-08-24T11:33:04.725Z,1010.49
2017-08-24T11:34:04.700Z,1010.47
2017-08-24T11:35:04.693Z,1010.49
2017-08-24T11:36:04.674Z,1010.46
2017-08-24T11:37:04.656Z,1010.42
2017-08-24T11:38:04.641Z,1010.44
2017-08-24T11:39:04.625Z,1010.43
2017-08-24T11:40:04.612Z,1010.44
2017-08-24T11:41:04.595Z,1010.39
2017-08-24T11:42:04.584Z,1010.4
2017-08-24T11:43:04.615Z,1010.44
2017-08-24T11:44:04.558Z,1010.44
2017-08-24T11:45:04.546Z,1010.41
2017-08-24T11:46:04.519Z,1010.47
2017-08-24T11:47:04.571Z,1010.44
2017-08-24T11:48:04.492Z,1010.4
2017-08-24T11:49:04.497Z,1010.37
2017-08-24T11:50:04.454Z,1010.4
2017-08-24T11:51:04.440Z,1010.38
2017-08-24T11:52:04.425Z,1010.4
2017-08-24T11:53:04.409Z,1010.39
2017-08-24T11:54:04.395Z,1010.34
2017-08-24T11:55:04.381Z,1010.44
2017-08-24T11:56:04.361Z,1010.47
2017-08-24T11:57:04.348Z,1010.41
2017-08-24T11:58:04.334Z,1010.43
2017-08-24T11:59:04.316Z,1010.46
2017-08-24T12:00:04.298Z,1010.43
2017-08-24T12:01:04.283Z,1010.41
2017-08-24T12:02:04.269Z,1010.42
2017-08-24T12:03:04.252Z,1010.42
2017-08-24T12:04:04.238Z,1010.41
2017-08-24T12:05:04.222Z,1010.4
2017-08-24T12:06:04.204Z,1010.41
2017-08-24T12:07:04.193Z,1010.46
2017-08-24T12:08:04.174Z,1010.45
2017-08-24T12:09:04.156Z,1010.4
2017-08-24T12:10:04.144Z,1010.41